Time;durP1;ratioP1;P1;durP2;ratioP2;P2;SDS_P1;SDS_P2;PMS_P1;PMS_P2;Temp;Humidity;BMP_temperature;BMP_pressure;BME280_temperature;BME280_humidity;BME280_pressure;Samples;Min_cycle;Max_cycle;Signal;HPM_P1;HPM_P2
2022/04/11 00:00:55;;;;;;;11.97;11.57;;;1.80;99.90;;;;;;5083547;28;20292;-80
2022/04/11 00:03:24;;;;;;;12.23;11.83;;;1.80;99.90;;;;;;5089530;28;20234;-80
2022/04/11 00:05:53;;;;;;;12.07;11.67;;;1.80;99.90;;;;;;5087075;28;20292;-81
2022/04/11 00:08:23;;;;;;;12.23;11.83;;;1.80;99.90;;;;;;5086116;28;20238;-81
2022/04/11 00:10:52;;;;;;;12.00;11.60;;;1.80;99.90;;;;;;5085592;28;20230;-81
2022/04/11 00:16:17;;;;;;;12.10;11.70;;;1.70;99.90;;;;;;5081519;28;20284;-80
2022/04/11 00:18:47;;;;;;;12.40;12.00;;;1.60;99.90;;;;;;5085446;28;20238;-80
2022/04/11 00:21:16;;;;;;;12.30;11.90;;;1.60;99.90;;;;;;5084346;28;20277;-82
2022/04/11 00:23:45;;;;;;;12.03;11.63;;;1.60;99.90;;;;;;5083738;28;20229;-81
2022/04/11 00:26:15;;;;;;;12.27;11.87;;;1.60;99.90;;;;;;5083064;28;20280;-81
2022/04/11 00:28:53;;;;;;;12.20;11.80;;;1.60;99.90;;;;;;5082425;28;20230;-81
2022/04/11 00:31:22;;;;;;;12.07;11.67;;;1.60;99.90;;;;;;5082565;28;20266;-80
2022/04/11 00:33:52;;;;;;;12.30;11.90;;;1.50;99.90;;;;;;5082609;28;20226;-80
2022/04/11 00:36:21;;;;;;;12.40;12.00;;;1.60;99.90;;;;;;5082108;28;20658;-81
2022/04/11 00:38:51;;;;;;;12.20;11.80;;;1.60;99.90;;;;;;5082596;28;20241;-80
2022/04/11 00:41:20;;;;;;;12.00;11.60;;;1.50;99.90;;;;;;5090572;28;20222;-79
2022/04/11 00:46:37;;;;;;;12.30;11.90;;;1.40;99.90;;;;;;5091479;28;20289;-80
2022/04/11 00:49:06;;;;;;;11.90;11.50;;;1.50;99.90;;;;;;5086765;28;20242;-80
2022/04/11 00:51:35;;;;;;;12.10;11.70;;;1.40;99.90;;;;;;5083058;28;20312;-80
2022/04/11 00:54:05;;;;;;;12.30;11.90;;;1.40;99.90;;;;;;5083490;28;20280;-80
2022/04/11 00:56:35;;;;;;;12.17;11.77;;;1.40;99.90;;;;;;5082010;28;20253;-80
2022/04/11 00:59:07;;;;;;;12.27;11.87;;;1.20;99.90;;;;;;5082216;28;20234;-80
2022/04/11 01:01:51;;;;;;;12.20;11.80;;;1.10;99.90;;;;;;5081697;28;20229;-79
2022/04/11 01:04:30;;;;;;;12.23;11.83;;;1.00;99.90;;;;;;5083439;28;20245;-80
2022/04/11 01:06:59;;;;;;;12.20;11.80;;;0.90;99.90;;;;;;5087128;28;20230;-79
2022/04/11 01:09:28;;;;;;;12.50;12.10;;;0.80;99.90;;;;;;5091369;28;20242;-78
2022/04/11 01:11:58;;;;;;;12.53;12.13;;;0.80;99.90;;;;;;5090177;28;20226;-79
2022/04/11 01:14:30;;;;;;;12.67;12.27;;;0.70;99.90;;;;;;5085325;28;20244;-80
2022/04/11 01:16:59;;;;;;;12.33;11.93;;;0.60;99.90;;;;;;5082751;28;20234;-79
2022/04/11 01:19:28;;;;;;;12.37;11.97;;;0.60;99.90;;;;;;5081174;28;20240;-80
2022/04/11 01:21:58;;;;;;;12.33;11.93;;;0.60;99.90;;;;;;5080331;28;20233;-80
2022/04/11 01:24:27;;;;;;;12.33;11.93;;;0.60;99.90;;;;;;5081236;28;20296;-80
2022/04/11 01:26:55;;;;;;;12.20;11.80;;;0.70;99.90;;;;;;5080980;28;20234;-80
2022/04/11 01:29:24;;;;;;;12.50;12.10;;;0.70;99.90;;;;;;5080555;28;20288;-80
2022/04/11 01:31:53;;;;;;;12.40;12.00;;;0.80;99.90;;;;;;5080552;28;20246;-80
2022/04/11 01:34:22;;;;;;;12.40;12.00;;;0.80;99.90;;;;;;5080295;28;20230;-80
2022/04/11 01:36:52;;;;;;;12.13;11.73;;;0.70;99.90;;;;;;5081058;28;20257;-79
2022/04/11 01:39:30;;;;;;;12.30;11.90;;;0.70;99.90;;;;;;5080419;28;20253;-80
2022/04/11 01:41:59;;;;;;;12.13;11.73;;;0.70;99.90;;;;;;5080108;28;20225;-80
2022/04/11 01:44:30;;;;;;;12.27;11.87;;;0.60;99.90;;;;;;5080698;28;20226;-80
2022/04/11 01:46:58;;;;;;;12.30;11.90;;;0.60;99.90;;;;;;5080685;28;20226;-79
2022/04/11 01:49:28;;;;;;;12.67;12.27;;;0.50;99.90;;;;;;5080947;28;20289;-80
2022/04/11 01:51:57;;;;;;;12.50;12.10;;;0.50;99.90;;;;;;5080989;28;20230;-80
2022/04/11 01:54:32;;;;;;;12.50;12.10;;;0.50;99.90;;;;;;5081114;28;20226;-80
2022/04/11 01:57:00;;;;;;;12.53;12.13;;;0.50;99.90;;;;;;5080602;28;20241;-79
2022/04/11 01:59:27;;;;;;;12.33;11.93;;;0.40;99.90;;;;;;5080705;28;20238;-80
2022/04/11 02:01:57;;;;;;;12.77;12.37;;;0.40;99.90;;;;;;5081703;28;20222;-82
2022/04/11 02:04:28;;;;;;;12.23;11.83;;;0.50;99.90;;;;;;5084292;28;20264;-80
2022/04/11 02:06:56;;;;;;;12.67;12.27;;;0.50;99.90;;;;;;5083835;28;20237;-81
2022/04/11 02:09:34;;;;;;;12.40;12.00;;;0.50;99.90;;;;;;5083964;28;20268;-81
2022/04/11 02:12:04;;;;;;;12.23;11.83;;;0.50;99.90;;;;;;5085436;28;20226;-81
2022/04/11 02:14:33;;;;;;;12.50;12.10;;;0.50;99.90;;;;;;5085610;28;20230;-81
2022/04/11 02:17:02;;;;;;;12.37;11.97;;;0.40;99.90;;;;;;5088501;28;20218;-79
2022/04/11 02:19:32;;;;;;;12.37;11.97;;;0.50;99.90;;;;;;5101400;28;20233;-80
2022/04/11 02:22:01;;;;;;;12.30;11.90;;;0.40;99.90;;;;;;5089977;28;20222;-81
2022/04/11 02:24:40;;;;;;;12.17;11.77;;;0.40;99.90;;;;;;5087745;28;20234;-82
2022/04/11 02:27:09;;;;;;;12.50;12.10;;;0.40;99.90;;;;;;5086391;28;20234;-79
2022/04/11 02:29:38;;;;;;;12.60;12.20;;;0.40;99.90;;;;;;5085891;28;20222;-80
2022/04/11 02:32:08;;;;;;;12.37;11.97;;;0.40;99.90;;;;;;5084777;28;20231;-80
2022/04/11 02:34:37;;;;;;;12.50;12.10;;;0.50;99.90;;;;;;5084785;28;20276;-79
2022/04/11 02:37:07;;;;;;;12.47;12.07;;;0.50;99.90;;;;;;5084631;28;20300;-80
2022/04/11 02:39:45;;;;;;;12.47;12.07;;;0.50;99.90;;;;;;5084392;28;20265;-81
2022/04/11 02:42:23;;;;;;;12.20;11.80;;;0.50;99.90;;;;;;5083950;28;20248;-80
2022/04/11 02:44:52;;;;;;;12.50;12.10;;;0.50;99.90;;;;;;5083557;28;20234;-80
2022/04/11 02:47:22;;;;;;;12.40;12.00;;;0.60;99.90;;;;;;5083270;28;20234;-80
2022/04/11 02:49:51;;;;;;;12.10;11.70;;;0.60;99.90;;;;;;5083156;28;20234;-80
2022/04/11 02:52:21;;;;;;;12.27;11.87;;;0.60;99.90;;;;;;5083245;28;20261;-80
2022/04/11 02:54:59;;;;;;;12.27;11.87;;;0.50;99.90;;;;;;5083138;28;20316;-80
2022/04/11 02:57:29;;;;;;;12.10;11.70;;;0.50;99.90;;;;;;5082511;28;20286;-80
2022/04/11 02:59:58;;;;;;;12.30;11.90;;;0.50;99.90;;;;;;5082860;28;20261;-81
2022/04/11 03:02:28;;;;;;;12.27;11.87;;;0.50;99.90;;;;;;5083050;28;20218;-81
2022/04/11 03:04:57;;;;;;;12.30;11.90;;;0.50;99.90;;;;;;5083296;28;20298;-80
2022/04/11 03:07:27;;;;;;;12.57;12.17;;;0.60;99.90;;;;;;5083243;28;20281;-80
2022/04/11 03:09:58;;;;;;;12.60;12.20;;;0.50;99.90;;;;;;5083596;28;20265;-81
2022/04/11 03:12:27;;;;;;;12.30;11.90;;;0.50;99.90;;;;;;5083262;28;20261;-80
2022/04/11 03:14:55;;;;;;;12.43;12.03;;;0.50;99.90;;;;;;5083671;28;20230;-81
2022/04/11 03:17:24;;;;;;;12.40;12.00;;;0.40;99.90;;;;;;5082779;28;20238;-80
2022/04/11 03:19:54;;;;;;;12.40;12.00;;;0.40;99.90;;;;;;5083390;28;20226;-81
2022/04/11 03:22:23;;;;;;;12.30;11.90;;;0.30;99.90;;;;;;5090507;28;20206;-80
2022/04/11 03:24:52;;;;;;;12.23;11.83;;;0.30;99.90;;;;;;5100293;28;20265;-80
2022/04/11 03:27:31;;;;;;;12.07;11.67;;;0.20;99.90;;;;;;5093602;28;20280;-81
2022/04/11 03:30:01;;;;;;;12.10;11.70;;;0.30;99.90;;;;;;5085535;28;20229;-81
2022/04/11 03:32:29;;;;;;;12.20;11.80;;;0.30;99.90;;;;;;5083313;28;20222;-80
2022/04/11 03:34:59;;;;;;;12.30;11.90;;;0.30;99.90;;;;;;5083606;28;20288;-78
2022/04/11 03:37:29;;;;;;;12.50;12.10;;;0.30;99.90;;;;;;5082838;28;20237;-80
2022/04/11 03:39:58;;;;;;;12.43;12.03;;;0.30;99.90;;;;;;5083194;28;20272;-80
2022/04/11 03:42:37;;;;;;;12.47;12.07;;;0.30;99.90;;;;;;5082446;28;20218;-80
2022/04/11 03:45:08;;;;;;;12.30;11.90;;;0.20;99.90;;;;;;5082638;28;20234;-80
2022/04/11 03:47:36;;;;;;;12.20;11.80;;;0.20;99.90;;;;;;5095187;28;20226;-79
2022/04/11 03:50:04;;;;;;;12.30;11.90;;;0.20;99.90;;;;;;5097053;28;20226;-80
2022/04/11 03:52:34;;;;;;;12.40;12.00;;;0.20;99.90;;;;;;5088540;28;20230;-80
2022/04/11 03:55:07;;;;;;;12.27;11.87;;;0.20;99.90;;;;;;5084346;28;20230;-80
2022/04/11 03:57:38;;;;;;;12.57;12.17;;;0.20;99.90;;;;;;5083170;28;20237;-80
2022/04/11 04:00:07;;;;;;;12.47;12.07;;;0.20;99.90;;;;;;5083206;28;20225;-80
2022/04/11 04:02:35;;;;;;;12.47;12.07;;;0.10;99.90;;;;;;5082921;28;20268;-80
2022/04/11 04:05:12;;;;;;;12.30;11.90;;;0.10;99.90;;;;;;5083784;28;20288;-80
2022/04/11 04:07:41;;;;;;;12.57;12.17;;;0.10;99.90;;;;;;5083508;28;20226;-80
2022/04/11 04:10:11;;;;;;;12.20;11.80;;;0.10;99.90;;;;;;5082885;28;20250;-81
2022/04/11 04:12:50;;;;;;;12.40;12.00;;;0.20;99.90;;;;;;5082607;28;20229;-80
2022/04/11 04:15:18;;;;;;;12.90;12.50;;;0.20;99.90;;;;;;5099095;28;20230;-81
2022/04/11 04:17:49;;;;;;;12.57;12.17;;;0.10;99.90;;;;;;5099943;28;20234;-81
2022/04/11 04:20:17;;;;;;;12.67;12.27;;;0.10;99.90;;;;;;5085883;28;20229;-81
2022/04/11 04:22:46;;;;;;;12.83;12.43;;;0.10;99.90;;;;;;5084287;28;20238;-81
2022/04/11 04:25:17;;;;;;;12.90;12.50;;;0.10;99.90;;;;;;5082980;28;20234;-81
2022/04/11 04:27:49;;;;;;;12.80;12.40;;;0.10;99.90;;;;;;5082901;28;20273;-81
2022/04/11 04:30:16;;;;;;;12.87;12.47;;;0.10;99.90;;;;;;5082175;28;20273;-81
2022/04/11 04:32:44;;;;;;;12.77;12.37;;;0.20;99.90;;;;;;5083237;28;20226;-81
2022/04/11 04:35:13;;;;;;;12.83;12.43;;;0.20;99.90;;;;;;5097161;28;20241;-81
2022/04/11 04:37:44;;;;;;;12.80;12.40;;;0.20;99.90;;;;;;5093714;28;20238;-81
2022/04/11 04:40:12;;;;;;;12.80;12.40;;;0.30;99.90;;;;;;5085571;28;20242;-81
2022/04/11 04:42:42;;;;;;;12.80;12.40;;;0.30;99.90;;;;;;5083216;28;20230;-81
2022/04/11 04:45:14;;;;;;;13.17;12.77;;;0.30;99.90;;;;;;5083099;28;20268;-81
2022/04/11 04:47:42;;;;;;;12.73;12.33;;;0.30;99.90;;;;;;5081893;28;20230;-81
2022/04/11 04:50:11;;;;;;;13.10;12.70;;;0.30;99.90;;;;;;5088593;22;20281;-79
2022/04/11 04:52:40;;;;;;;12.57;12.17;;;0.30;99.90;;;;;;5058253;28;20242;-79
2022/04/11 04:55:09;;;;;;;12.83;12.43;;;0.30;99.90;;;;;;5061573;28;20231;-80
2022/04/11 04:57:36;;;;;;;13.00;12.60;;;0.40;99.90;;;;;;5060291;28;20305;-79
2022/04/11 05:00:07;;;;;;;12.63;12.23;;;0.50;99.90;;;;;;5062686;28;20222;-79
2022/04/11 05:02:39;;;;;;;12.70;12.30;;;0.50;99.90;;;;;;5077704;28;20286;-79
2022/04/11 05:05:10;;;;;;;12.90;12.50;;;0.60;99.90;;;;;;5078103;28;20231;-79
2022/04/11 05:07:37;;;;;;;12.83;12.43;;;0.60;99.90;;;;;;5078212;28;20221;-78
2022/04/11 05:10:06;;;;;;;12.73;12.33;;;0.70;99.90;;;;;;5077664;28;20231;-79
2022/04/11 05:12:41;;;;;;;12.60;12.20;;;0.70;99.90;;;;;;5077764;28;20226;-79
2022/04/11 05:15:09;;;;;;;12.73;12.33;;;0.80;99.90;;;;;;5074671;28;20264;-78
2022/04/11 05:17:38;;;;;;;12.60;12.20;;;0.80;99.90;;;;;;5075639;28;20237;-79
2022/04/11 05:20:09;;;;;;;12.67;12.27;;;0.80;99.90;;;;;;5077632;28;20273;-79
2022/04/11 05:22:36;;;;;;;13.20;12.80;;;0.80;99.90;;;;;;5077919;28;20210;-79
2022/04/11 05:25:05;;;;;;;12.70;12.30;;;0.90;99.90;;;;;;5077961;28;20227;-79
2022/04/11 05:27:33;;;;;;;12.80;12.40;;;0.90;99.90;;;;;;5079092;28;20223;-77
2022/04/11 05:30:00;;;;;;;12.77;12.37;;;0.90;99.90;;;;;;5079623;28;20297;-78
2022/04/11 05:32:28;;;;;;;12.50;12.10;;;0.90;99.90;;;;;;5078166;28;20222;-78
2022/04/11 05:34:57;;;;;;;12.73;12.33;;;0.80;99.90;;;;;;5077247;28;20245;-78
2022/04/11 05:37:25;;;;;;;12.60;12.20;;;0.80;99.90;;;;;;5073368;28;20243;-79
2022/04/11 05:39:52;;;;;;;13.00;12.60;;;0.80;99.90;;;;;;5062565;28;20231;-78
2022/04/11 05:42:22;;;;;;;12.43;12.03;;;0.80;99.90;;;;;;5051180;28;20207;-79
2022/04/11 05:44:50;;;;;;;12.60;12.20;;;0.90;99.90;;;;;;5062413;28;20230;-78
2022/04/11 05:47:17;;;;;;;12.80;12.40;;;1.00;99.90;;;;;;5061437;28;20407;-79
2022/04/11 05:49:45;;;;;;;12.50;12.10;;;1.10;99.90;;;;;;5063894;28;20281;-80
2022/04/11 05:52:18;;;;;;;12.33;11.93;;;1.20;99.90;;;;;;5062633;28;20326;-79
2022/04/11 05:54:46;;;;;;;12.33;11.93;;;1.40;99.90;;;;;;5061961;28;20231;-79
2022/04/11 05:57:14;;;;;;;12.10;11.70;;;1.50;99.90;;;;;;5060603;28;20235;-79
2022/04/11 05:59:42;;;;;;;12.10;11.70;;;1.50;99.90;;;;;;5061842;28;20223;-80
2022/04/11 06:02:10;;;;;;;11.87;11.47;;;1.60;99.90;;;;;;5062976;28;20234;-79
2022/04/11 06:04:38;;;;;;;11.80;11.40;;;1.60;99.90;;;;;;5062954;28;20231;-81
2022/04/11 06:07:06;;;;;;;12.03;11.63;;;1.70;99.90;;;;;;5063923;28;20322;-80
2022/04/11 06:09:35;;;;;;;11.70;11.30;;;1.70;99.90;;;;;;5062865;28;20277;-79
2022/04/11 06:12:03;;;;;;;11.97;11.57;;;1.80;99.90;;;;;;5062327;28;20777;-79
2022/04/11 06:14:31;;;;;;;11.83;11.43;;;1.90;99.90;;;;;;5064919;28;20234;-80
2022/04/11 06:16:59;;;;;;;11.50;11.10;;;2.00;99.90;;;;;;5064035;28;20239;-81
2022/04/11 06:19:32;;;;;;;11.80;11.40;;;2.10;99.90;;;;;;5070681;28;20219;-81
2022/04/11 06:21:59;;;;;;;11.50;11.10;;;2.20;99.90;;;;;;5065640;28;20227;-79
2022/04/11 06:24:27;;;;;;;11.50;11.10;;;2.30;99.90;;;;;;5070121;28;20227;-80
2022/04/11 06:26:56;;;;;;;11.77;11.37;;;2.50;99.90;;;;;;5068660;28;20235;-79
2022/04/11 06:29:26;;;;;;;11.50;11.10;;;2.60;99.90;;;;;;5068003;28;20231;-80
2022/04/11 06:31:54;;;;;;;11.57;11.17;;;2.80;99.90;;;;;;5067635;28;20285;-80
2022/04/11 06:34:22;;;;;;;11.33;10.93;;;3.00;99.90;;;;;;5065809;28;20293;-80
2022/04/11 06:36:49;;;;;;;11.33;10.93;;;3.20;99.90;;;;;;5067289;28;20249;-79
2022/04/11 06:39:17;;;;;;;11.47;11.07;;;3.40;99.90;;;;;;5063308;28;20235;-79
2022/04/11 06:41:45;;;;;;;11.40;11.00;;;3.50;99.90;;;;;;5062881;28;21139;-80
2022/04/11 06:44:15;;;;;;;11.60;11.20;;;3.50;99.90;;;;;;5065591;28;20222;-80
2022/04/11 06:46:43;;;;;;;10.97;10.67;;;3.70;99.90;;;;;;5069971;28;20322;-81
2022/04/11 06:49:11;;;;;;;11.00;10.70;;;3.80;99.90;;;;;;5070888;28;20355;-80
2022/04/11 06:51:39;;;;;;;11.20;10.90;;;3.90;99.90;;;;;;5069232;28;20226;-80
2022/04/11 06:54:07;;;;;;;11.27;10.97;;;4.10;99.90;;;;;;5067415;28;20230;-80
2022/04/11 06:56:35;;;;;;;11.23;10.93;;;4.30;99.90;;;;;;5067000;28;20262;-80
2022/04/11 06:59:02;;;;;;;10.70;10.40;;;4.40;99.90;;;;;;5063806;28;20235;-80
2022/04/11 07:01:31;;;;;;;10.20;9.90;;;4.50;99.90;;;;;;5063842;28;20227;-81
2022/04/11 07:03:59;;;;;;;10.43;10.13;;;4.60;99.90;;;;;;5064147;28;20235;-81
2022/04/11 07:06:27;;;;;;;10.17;9.87;;;4.80;99.90;;;;;;5062733;28;20309;-80
2022/04/11 07:08:54;;;;;;;10.40;10.10;;;4.90;99.90;;;;;;5062257;28;20293;-80
2022/04/11 07:11:22;;;;;;;10.60;10.30;;;5.00;99.90;;;;;;5062505;28;20238;-80
2022/04/11 07:13:50;;;;;;;10.70;10.40;;;5.20;99.90;;;;;;5063580;28;20230;-78
2022/04/11 07:16:18;;;;;;;10.63;10.33;;;5.30;99.90;;;;;;5063292;28;20239;-80
2022/04/11 07:18:54;;;;;;;11.00;10.70;;;5.20;99.90;;;;;;5061888;28;20239;-81
2022/04/11 07:21:22;;;;;;;10.70;10.40;;;5.20;99.90;;;;;;5062838;28;20218;-80
2022/04/11 07:23:50;;;;;;;11.23;10.93;;;5.30;99.90;;;;;;5063205;28;20241;-80
2022/04/11 07:26:17;;;;;;;11.07;10.77;;;5.50;99.90;;;;;;5062541;28;20231;-80
2022/04/11 07:28:47;;;;;;;10.93;10.63;;;5.60;99.90;;;;;;5062511;28;20235;-82
2022/04/11 07:31:18;;;;;;;10.83;10.53;;;5.80;99.90;;;;;;5061524;28;20254;-81
2022/04/11 07:33:47;;;;;;;10.63;10.33;;;5.90;99.90;;;;;;5061145;28;20231;-81
2022/04/11 07:36:15;;;;;;;10.73;10.43;;;6.00;99.90;;;;;;5049265;28;20235;-81
2022/04/11 07:38:42;;;;;;;10.50;10.20;;;6.10;99.90;;;;;;5061185;28;20237;-81
2022/04/11 07:41:10;;;;;;;10.70;10.40;;;6.20;99.90;;;;;;5061799;28;20223;-82
2022/04/11 07:43:38;;;;;;;10.97;10.67;;;6.30;99.90;;;;;;5060950;28;20241;-81
2022/04/11 07:46:06;;;;;;;10.60;10.30;;;6.30;99.90;;;;;;5061597;28;20282;-81
2022/04/11 07:48:34;;;;;;;10.80;10.50;;;6.40;99.90;;;;;;5060449;28;20250;-82
2022/04/11 07:51:03;;;;;;;10.77;10.47;;;6.60;99.90;;;;;;5061390;28;20297;-81
2022/04/11 07:53:31;;;;;;;10.60;10.30;;;6.70;99.90;;;;;;5060754;28;20235;-81
2022/04/11 07:55:59;;;;;;;10.90;10.60;;;6.80;99.90;;;;;;5060765;28;20231;-82
2022/04/11 07:58:26;;;;;;;10.93;10.63;;;7.00;99.90;;;;;;5061220;28;20239;-80
2022/04/11 08:00:54;;;;;;;11.03;10.73;;;7.10;99.90;;;;;;5059921;28;20288;-81
2022/04/11 08:03:22;;;;;;;10.63;10.33;;;7.20;99.90;;;;;;5061959;28;20282;-81
2022/04/11 08:05:50;;;;;;;10.70;10.40;;;7.30;99.90;;;;;;5058374;28;20262;-80
2022/04/11 08:08:19;;;;;;;10.90;10.60;;;7.40;99.90;;;;;;5060423;28;20231;-80
2022/04/11 08:10:47;;;;;;;10.77;10.47;;;7.40;99.90;;;;;;5059427;28;20211;-84
2022/04/11 08:13:15;;;;;;;10.40;10.10;;;7.50;99.90;;;;;;5058013;28;20293;-79
2022/04/11 08:15:43;;;;;;;10.33;10.03;;;7.50;99.90;;;;;;5061034;28;20254;-81
2022/04/11 08:18:10;;;;;;;10.47;10.17;;;7.50;99.90;;;;;;5060507;28;20239;-82
2022/04/11 08:20:38;;;;;;;10.80;10.50;;;7.50;99.90;;;;;;5060351;28;20222;-81
2022/04/11 08:23:06;;;;;;;10.77;10.47;;;7.60;99.90;;;;;;5064584;28;20235;-82
2022/04/11 08:25:35;;;;;;;10.63;10.33;;;7.80;99.90;;;;;;5061860;28;20234;-82
2022/04/11 08:28:04;;;;;;;10.00;9.70;;;8.00;99.90;;;;;;5062513;28;20230;-82
2022/04/11 08:30:32;;;;;;;9.93;9.63;;;8.10;99.90;;;;;;5060725;28;20233;-81
2022/04/11 08:33:00;;;;;;;9.93;9.63;;;8.00;99.90;;;;;;5060874;28;20234;-81
2022/04/11 08:35:27;;;;;;;9.97;9.67;;;8.10;99.90;;;;;;5060998;28;20227;-81
2022/04/11 08:37:55;;;;;;;10.17;9.87;;;8.00;99.90;;;;;;5060526;28;20223;-81
2022/04/11 08:40:23;;;;;;;10.30;10.00;;;8.20;99.90;;;;;;5059995;28;20664;-82
2022/04/11 08:42:52;;;;;;;10.37;10.07;;;8.30;99.90;;;;;;5057570;28;20257;-81
2022/04/11 08:45:22;;;;;;;10.30;10.00;;;8.50;99.90;;;;;;5059929;28;20293;-80
2022/04/11 08:47:53;;;;;;;10.40;10.10;;;8.70;99.90;;;;;;5060404;28;20239;-81
2022/04/11 08:50:22;;;;;;;10.00;9.70;;;8.90;99.90;;;;;;5059468;28;20270;-82
2022/04/11 08:52:52;;;;;;;10.40;10.10;;;9.10;99.90;;;;;;5059958;28;20230;-81
2022/04/11 08:55:20;;;;;;;10.43;10.13;;;9.30;99.90;;;;;;5059788;28;20710;-81
2022/04/11 08:57:51;;;;;;;10.53;10.23;;;9.40;99.90;;;;;;5059074;28;20275;-82
2022/04/11 09:00:21;;;;;;;10.40;10.10;;;9.50;99.90;;;;;;5059593;28;20230;-82
2022/04/11 09:02:49;;;;;;;10.30;10.00;;;9.60;99.90;;;;;;5060172;28;20261;-81
2022/04/11 09:05:22;;;;;;;10.30;10.00;;;9.60;99.90;;;;;;5060239;28;20300;-82
2022/04/11 09:07:51;;;;;;;10.40;10.10;;;9.60;99.90;;;;;;5059280;28;20234;-81
2022/04/11 09:10:21;;;;;;;11.00;10.70;;;9.70;99.90;;;;;;5059427;28;20297;-84
2022/04/11 09:12:53;;;;;;;10.80;10.50;;;9.70;99.90;;;;;;5059374;28;20227;-80
2022/04/11 09:15:23;;;;;;;10.40;10.10;;;9.90;99.90;;;;;;5060154;28;20238;-80
2022/04/11 09:17:52;;;;;;;10.50;10.20;;;10.20;99.90;;;;;;5057690;28;20235;-79
2022/04/11 09:20:22;;;;;;;10.40;10.10;;;10.30;99.90;;;;;;5059467;28;20234;-82
2022/04/11 09:22:50;;;;;;;10.40;10.10;;;10.50;99.90;;;;;;5060163;28;20218;-83
2022/04/11 09:25:21;;;;;;;10.60;10.30;;;10.50;99.90;;;;;;5064352;28;20233;-84
2022/04/11 09:27:49;;;;;;;10.77;10.47;;;10.60;99.90;;;;;;5075563;28;20242;-82
2022/04/11 09:30:25;;;;;;;10.60;10.30;;;10.70;99.90;;;;;;5079261;28;20295;-83
2022/04/11 09:33:02;;;;;;;10.50;10.20;;;10.70;99.90;;;;;;5078520;28;20286;-83
2022/04/11 09:35:33;;;;;;;10.23;9.93;;;10.70;99.90;;;;;;5067238;28;20240;-82
2022/04/11 09:38:13;;;;;;;9.83;9.53;;;10.70;99.90;;;;;;5062849;28;20241;-83
2022/04/11 09:40:43;;;;;;;9.93;9.63;;;10.80;99.90;;;;;;5072044;28;20230;-82
2022/04/11 09:43:13;;;;;;;10.13;9.83;;;10.90;99.90;;;;;;5066042;28;20237;-82
2022/04/11 09:45:44;;;;;;;10.10;9.80;;;10.90;99.90;;;;;;5059509;28;20235;-82
2022/04/11 09:48:16;;;;;;;10.00;9.70;;;10.90;99.90;;;;;;5058291;28;20230;-82
2022/04/11 09:50:44;;;;;;;9.70;9.40;;;11.20;99.90;;;;;;5058212;28;20258;-83
2022/04/11 09:53:14;;;;;;;10.10;9.80;;;11.30;99.90;;;;;;5056573;28;20234;-83
2022/04/11 09:55:46;;;;;;;10.30;10.00;;;11.10;99.90;;;;;;5060742;28;20230;-82
2022/04/11 09:58:16;;;;;;;10.40;10.10;;;11.30;99.90;;;;;;5059351;28;20238;-83
2022/04/11 10:00:47;;;;;;;10.37;10.07;;;11.70;99.90;;;;;;5060687;28;20238;-82
2022/04/11 10:03:14;;;;;;;10.43;10.13;;;12.10;99.90;;;;;;5060152;28;20258;-83
2022/04/11 10:05:43;;;;;;;10.23;9.93;;;12.20;99.90;;;;;;5065392;28;20231;-81
2022/04/11 10:08:13;;;;;;;10.47;10.17;;;11.90;99.90;;;;;;5060333;28;20220;-82
2022/04/11 10:10:42;;;;;;;10.20;9.90;;;11.70;99.90;;;;;;5059607;28;20238;-81
2022/04/11 10:13:12;;;;;;;10.40;10.10;;;11.90;99.90;;;;;;5059839;28;20234;-82
2022/04/11 10:15:45;;;;;;;10.50;10.20;;;12.40;99.90;;;;;;5059330;28;20326;-81
2022/04/11 10:18:18;;;;;;;10.20;9.90;;;12.60;99.90;;;;;;5060041;28;20280;-82
2022/04/11 10:20:50;;;;;;;10.10;9.80;;;12.50;99.90;;;;;;5063117;28;20215;-82
2022/04/11 10:23:31;;;;;;;10.30;10.00;;;12.40;99.90;;;;;;5064402;28;20241;-82
2022/04/11 10:26:03;;;;;;;9.83;9.53;;;12.40;99.90;;;;;;5066718;28;20231;-82
2022/04/11 10:28:32;;;;;;;10.07;9.77;;;12.50;99.90;;;;;;5063531;28;20294;-83
2022/04/11 10:31:13;;;;;;;9.90;9.60;;;12.90;99.90;;;;;;5061895;28;20353;-83
2022/04/11 10:33:51;;;;;;;10.00;9.70;;;12.60;99.90;;;;;;5061204;28;20226;-82
2022/04/11 10:36:33;;;;;;;10.20;9.90;;;12.20;99.90;;;;;;5061064;28;20322;-81
2022/04/11 10:39:30;;;;;;;10.63;10.33;;;11.90;99.90;;;;;;5060185;28;20235;-83
2022/04/11 10:42:22;;;;;;;10.57;10.27;;;12.20;99.90;;;;;;5054885;28;20255;-82
2022/04/11 10:44:53;;;;;;;10.63;10.33;;;12.50;99.90;;;;;;5066420;28;20230;-81
2022/04/11 10:47:39;;;;;;;11.10;10.80;;;12.50;99.90;;;;;;5074445;28;20316;-81
2022/04/11 10:50:32;;;;;;;10.73;10.43;;;12.50;99.90;;;;;;5141137;22;20226;-79
2022/04/11 10:53:28;;;;;;;10.63;10.33;;;12.90;99.90;;;;;;5082250;28;20210;-80
2022/04/11 10:56:59;;;;;;;10.20;9.90;;;13.00;99.90;;;;;;5071185;28;20234;-80
2022/04/11 11:00:05;;;;;;;10.50;10.20;;;13.30;99.90;;;;;;5089599;28;20299;-81
2022/04/11 11:03:16;;;;;;;10.50;10.20;;;13.80;99.90;;;;;;5087109;28;20226;-82
2022/04/11 11:05:48;;;;;;;10.43;10.13;;;14.30;99.90;;;;;;5098583;28;20266;-80
2022/04/11 11:08:33;;;;;;;10.80;10.50;;;14.60;99.90;;;;;;5100753;28;20253;-78
2022/04/11 11:11:21;;;;;;;11.03;10.73;;;14.20;99.90;;;;;;5078554;28;20271;-81
2022/04/11 11:13:52;;;;;;;10.83;10.53;;;13.90;99.90;;;;;;5080636;28;20226;-79
2022/04/11 11:20:11;;;;;;;11.17;10.87;;;13.60;99.90;;;;;;5098998;28;20218;-77
2022/04/11 11:23:21;;;;;;;11.00;10.70;;;13.80;99.90;;;;;;5100658;28;20234;-79
2022/04/11 11:25:50;;;;;;;11.20;10.90;;;14.10;99.90;;;;;;5099619;28;20234;-78
2022/04/11 11:28:21;;;;;;;10.60;10.30;;;14.20;99.90;;;;;;5100302;28;20201;-78
2022/04/11 11:30:49;;;;;;;10.70;10.40;;;13.80;99.90;;;;;;5100038;28;20237;-79
2022/04/11 11:33:19;;;;;;;10.90;10.60;;;13.90;99.90;;;;;;5100730;28;20207;-79
2022/04/11 11:35:58;;;;;;;10.73;10.43;;;14.00;99.90;;;;;;5099731;28;20226;-80
2022/04/11 11:38:27;;;;;;;10.77;10.47;;;14.20;99.90;;;;;;5088629;28;20218;-79
2022/04/11 11:40:57;;;;;;;10.80;10.50;;;14.30;99.90;;;;;;5083829;28;20230;-79
2022/04/11 11:43:26;;;;;;;10.70;10.40;;;14.20;99.90;;;;;;5083362;28;20226;-79
2022/04/11 11:45:57;;;;;;;10.80;10.50;;;14.10;99.90;;;;;;5084708;28;20820;-79
2022/04/11 11:48:27;;;;;;;11.10;10.80;;;14.20;99.90;;;;;;5082288;28;20234;-79
2022/04/11 11:51:02;;;;;;;11.27;10.97;;;14.20;99.90;;;;;;5081742;28;20268;-81
2022/04/11 11:53:43;;;;;;;11.10;10.80;;;14.70;99.90;;;;;;5081924;28;20279;-80
2022/04/11 11:56:12;;;;;;;11.20;10.90;;;15.50;99.90;;;;;;5081563;28;20341;-81
2022/04/11 11:58:41;;;;;;;11.57;11.17;;;15.20;99.90;;;;;;5081894;28;20234;-81
2022/04/11 12:01:12;;;;;;;11.20;10.90;;;14.80;99.90;;;;;;5082656;28;20234;-81
2022/04/11 12:06:38;;;;;;;11.88;11.48;;;15.80;99.90;;;;;;5082833;28;20222;-81
2022/04/11 12:09:06;;;;;;;11.45;11.05;;;16.10;99.90;;;;;;5082760;28;20287;-80
2022/04/11 12:11:35;;;;;;;11.40;11.00;;;16.20;99.90;;;;;;5082556;28;20261;-81
2022/04/11 12:14:05;;;;;;;11.30;10.90;;;16.40;99.90;;;;;;5082040;28;20226;-80
2022/04/11 12:16:35;;;;;;;11.50;11.10;;;15.90;99.90;;;;;;5081646;28;20269;-81
2022/04/11 12:19:05;;;;;;;11.50;11.10;;;15.30;99.90;;;;;;5081691;28;20323;-82
2022/04/11 12:21:44;;;;;;;11.53;11.13;;;14.70;99.90;;;;;;5082340;28;20297;-82
2022/04/11 12:24:12;;;;;;;11.30;11.00;;;14.70;99.90;;;;;;5082920;28;20264;-80
2022/04/11 12:26:42;;;;;;;11.43;11.03;;;14.60;99.90;;;;;;5083955;28;20238;-81
2022/04/11 12:29:11;;;;;;;11.60;11.20;;;14.30;99.90;;;;;;5082962;28;20244;-81
2022/04/11 12:31:39;;;;;;;11.33;11.03;;;14.80;99.90;;;;;;5083570;28;20260;-83
2022/04/11 12:34:17;;;;;;;11.25;10.95;;;15.30;99.90;;;;;;5083567;28;20230;-81
2022/04/11 12:37:06;;;;;;;11.32;11.02;;;15.70;99.90;;;;;;5083817;28;20230;-82
2022/04/11 12:39:42;;;;;;;11.43;11.13;;;15.90;99.90;;;;;;5083720;28;20245;-82
2022/04/11 12:42:22;;;;;;;11.15;10.85;;;15.80;99.90;;;;;;5083349;28;20230;-82
2022/04/11 12:44:50;;;;;;;11.70;11.30;;;15.90;99.90;;;;;;5083064;28;20292;-82
2022/04/11 12:47:19;;;;;;;11.02;10.73;;;16.30;99.90;;;;;;5085150;28;20241;-82
2022/04/11 12:49:53;;;;;;;11.30;11.00;;;16.10;99.90;;;;;;5088738;28;21110;-82
2022/04/11 12:52:27;;;;;;;11.20;10.90;;;16.20;99.90;;;;;;5084923;28;20288;-83
2022/04/11 12:55:15;;;;;;;11.65;11.25;;;16.40;99.90;;;;;;5085371;28;20232;-84
2022/04/11 13:00:58;;;;;;;11.40;11.05;;;17.80;99.90;;;;;;5082909;28;20280;-84
2022/04/11 13:03:27;;;;;;;11.00;10.70;;;17.40;99.90;;;;;;5082891;28;20321;-83
2022/04/11 13:06:14;;;;;;;11.23;10.93;;;17.50;99.90;;;;;;5082392;28;20236;-84
2022/04/11 13:08:46;;;;;;;11.65;11.25;;;17.70;99.90;;;;;;5082667;28;20222;-84
2022/04/11 13:14:00;;;;;;;11.45;11.05;;;17.20;99.90;;;;;;5079645;28;20261;-83